createdAt,value
2022-10-01T00:00:04.576Z,0.80
2022-10-01T00:02:32.772Z,0.93
2022-10-01T00:05:01.386Z,0.60
2022-10-01T00:07:31.115Z,0.85
2022-10-01T00:09:59.265Z,0.60
2022-10-01T00:12:27.453Z,0.88
2022-10-01T00:14:55.643Z,0.85
2022-10-01T00:17:24.368Z,0.90
2022-10-01T00:19:52.523Z,0.70
2022-10-01T00:22:20.777Z,0.70
2022-10-01T00:24:50.867Z,0.80
2022-10-01T00:27:19.025Z,0.57
2022-10-01T00:29:47.248Z,0.60
2022-10-01T00:32:15.497Z,0.45
2022-10-01T00:34:43.873Z,0.80
2022-10-01T00:37:12.437Z,0.70
2022-10-01T00:39:40.635Z,0.70
2022-10-01T00:42:18.231Z,0.40
2022-10-01T00:44:46.606Z,0.60
2022-10-01T00:47:23.008Z,0.50
2022-10-01T00:49:51.796Z,0.57
2022-10-01T00:52:21.606Z,0.60
2022-10-01T00:54:51.317Z,0.70
2022-10-01T00:57:23.157Z,0.60
2022-10-01T00:59:51.806Z,0.80
2022-10-01T01:02:19.944Z,0.77
2022-10-01T01:04:48.321Z,0.68
2022-10-01T01:07:16.572Z,0.60
2022-10-01T01:09:45.877Z,0.63
2022-10-01T01:12:40.277Z,0.60
2022-10-01T01:15:14.155Z,0.50
2022-10-01T01:17:47.319Z,0.70
2022-10-01T01:20:30.018Z,0.75
2022-10-01T01:23:03.082Z,0.50
2022-10-01T01:25:33.324Z,0.60
2022-10-01T01:28:08.456Z,0.60
2022-10-01T01:30:41.194Z,0.77
2022-10-01T01:33:12.050Z,0.60
2022-10-01T01:35:44.123Z,0.57
2022-10-01T01:38:14.267Z,0.57
2022-10-01T01:40:42.860Z,0.60
2022-10-01T01:43:15.913Z,0.40
2022-10-01T01:45:44.086Z,0.40
2022-10-01T01:48:13.020Z,0.60
2022-10-01T01:50:43.797Z,0.50
2022-10-01T01:53:12.481Z,0.50
2022-10-01T01:55:40.608Z,0.40
2022-10-01T01:58:08.767Z,0.60
2022-10-01T02:00:38.493Z,0.40
2022-10-01T02:03:07.510Z,0.45
2022-10-01T02:05:38.596Z,0.50
2022-10-01T02:08:26.519Z,0.35
2022-10-01T02:11:22.751Z,0.70
2022-10-01T02:13:57.437Z,0.50
2022-10-01T02:16:30.580Z,0.60
2022-10-01T02:19:01.155Z,0.50
2022-10-01T02:21:32.073Z,0.40
2022-10-01T02:24:02.090Z,0.70
2022-10-01T02:26:30.362Z,0.60
2022-10-01T02:29:00.911Z,0.50
2022-10-01T02:31:30.996Z,0.50
2022-10-01T02:33:59.768Z,0.40
2022-10-01T02:36:27.891Z,0.45
2022-10-01T02:38:56.023Z,0.38
2022-10-01T02:41:26.229Z,0.50
2022-10-01T02:43:55.673Z,0.30
2022-10-01T02:46:27.842Z,0.43
2022-10-01T02:48:57.516Z,0.50
2022-10-01T02:51:33.189Z,0.50
2022-10-01T02:54:04.561Z,0.40
2022-10-01T02:56:52.316Z,0.60
2022-10-01T02:59:23.730Z,0.63
2022-10-01T03:01:52.016Z,0.40
2022-10-01T03:04:21.885Z,0.50
2022-10-01T03:06:49.859Z,0.32
2022-10-01T03:09:17.752Z,0.40
2022-10-01T03:11:45.943Z,0.52
2022-10-01T03:14:13.839Z,0.50
2022-10-01T03:16:41.742Z,0.40
2022-10-01T03:19:09.673Z,0.40
2022-10-01T03:21:39.048Z,0.40
2022-10-01T03:24:07.335Z,0.40
2022-10-01T03:26:36.006Z,0.32
2022-10-01T03:29:03.932Z,0.40
2022-10-01T03:31:32.250Z,0.50
2022-10-01T03:34:00.824Z,0.50
2022-10-01T03:36:28.887Z,0.50
2022-10-01T03:38:58.402Z,0.40
2022-10-01T03:41:29.478Z,0.50
2022-10-01T03:44:00.537Z,0.30
2022-10-01T03:46:28.855Z,0.40
2022-10-01T03:48:57.331Z,0.40
2022-10-01T03:51:25.363Z,0.40
2022-10-01T03:53:53.493Z,0.50
2022-10-01T03:56:22.811Z,0.40
2022-10-01T03:58:50.692Z,0.30
2022-10-01T04:01:18.672Z,0.43
2022-10-01T04:03:46.675Z,0.45
2022-10-01T04:06:14.726Z,0.40
2022-10-01T04:08:42.660Z,0.50
2022-10-01T04:11:10.561Z,0.38
2022-10-01T04:13:39.833Z,0.38
2022-10-01T04:16:08.114Z,0.40
2022-10-01T04:18:36.112Z,0.50
2022-10-01T04:21:05.251Z,0.40
2022-10-01T04:23:33.179Z,0.40
2022-10-01T04:26:02.400Z,0.47
2022-10-01T04:28:30.667Z,0.45
2022-10-01T04:31:14.152Z,0.40
2022-10-01T04:33:42.143Z,0.30
2022-10-01T04:36:10.041Z,0.50
2022-10-01T04:38:38.182Z,0.30
2022-10-01T04:41:06.313Z,0.40
2022-10-01T04:43:34.267Z,0.43
2022-10-01T04:46:03.544Z,0.30
2022-10-01T04:48:31.459Z,0.40
2022-10-01T04:50:59.435Z,0.30
2022-10-01T04:53:27.343Z,0.30
2022-10-01T04:55:55.320Z,0.50
2022-10-01T04:58:23.240Z,0.30
2022-10-01T05:00:51.214Z,0.40
2022-10-01T05:03:20.609Z,0.40
2022-10-01T05:05:48.583Z,0.40
2022-10-01T05:08:16.786Z,0.50
2022-10-01T05:10:44.767Z,0.40
2022-10-01T05:13:12.723Z,0.40
2022-10-01T05:15:41.101Z,0.40
2022-10-01T05:18:09.296Z,0.32
2022-10-01T05:20:38.656Z,0.38
2022-10-01T05:23:06.931Z,0.30
2022-10-01T05:25:34.868Z,0.32
2022-10-01T05:28:06.914Z,0.30
2022-10-01T05:30:35.080Z,0.30
2022-10-01T05:33:03.834Z,0.30
2022-10-01T05:35:32.507Z,0.50
2022-10-01T05:38:02.776Z,0.40
2022-10-01T05:40:30.984Z,0.40
2022-10-01T05:43:03.309Z,0.60
2022-10-01T05:45:31.627Z,0.40
2022-10-01T05:48:00.330Z,0.40
2022-10-01T05:50:29.079Z,0.68
2022-10-01T05:52:57.013Z,0.50
2022-10-01T05:55:26.378Z,0.50
2022-10-01T05:57:58.137Z,0.45
2022-10-01T06:00:29.098Z,0.40
2022-10-01T06:02:57.559Z,0.52
2022-10-01T06:05:25.762Z,0.47
2022-10-01T06:07:53.849Z,0.50
2022-10-01T06:10:22.058Z,0.50
2022-10-01T06:12:51.772Z,0.50
2022-10-01T06:15:19.768Z,0.50
2022-10-01T06:17:47.973Z,0.40
2022-10-01T06:20:19.094Z,0.50
2022-10-01T06:22:56.274Z,0.70
2022-10-01T06:25:24.283Z,0.40
2022-10-01T06:27:55.671Z,0.50
2022-10-01T06:30:23.761Z,0.50
2022-10-01T06:32:52.000Z,0.70
2022-10-01T06:35:20.839Z,0.70
2022-10-01T06:37:48.788Z,0.88
2022-10-01T06:40:16.839Z,0.70
2022-10-01T06:42:48.718Z,0.55
2022-10-01T06:45:18.174Z,0.65
2022-10-01T06:47:46.085Z,0.50
2022-10-01T06:50:14.396Z,0.50
2022-10-01T06:52:50.413Z,0.68
2022-10-01T06:55:18.474Z,0.50
2022-10-01T06:57:46.596Z,0.90
2022-10-01T07:00:14.724Z,0.70
2022-10-01T07:02:44.320Z,0.70
2022-10-01T07:05:13.056Z,0.77
2022-10-01T07:07:41.060Z,0.77
2022-10-01T07:10:10.532Z,0.88
2022-10-01T07:12:38.621Z,0.75
2022-10-01T07:15:07.391Z,0.65
2022-10-01T07:17:35.418Z,0.80
2022-10-01T07:20:05.470Z,0.80
2022-10-01T07:22:33.454Z,0.60
2022-10-01T07:25:01.363Z,0.60
2022-10-01T07:27:29.789Z,0.60
2022-10-01T07:29:59.151Z,0.70
2022-10-01T07:32:27.289Z,0.70
2022-10-01T07:34:55.192Z,0.63
2022-10-01T07:37:25.004Z,0.70
2022-10-01T07:39:52.915Z,0.68
2022-10-01T07:42:22.255Z,0.60
2022-10-01T07:44:50.171Z,0.60
2022-10-01T07:47:18.108Z,0.90
2022-10-01T07:49:46.569Z,0.80
2022-10-01T07:52:16.079Z,0.63
2022-10-01T07:54:45.805Z,0.70
2022-10-01T07:57:14.480Z,0.70
2022-10-01T07:59:43.275Z,0.77
2022-10-01T08:02:13.929Z,0.60
2022-10-01T08:04:59.895Z,0.60
2022-10-01T08:07:27.844Z,0.63
2022-10-01T08:09:58.197Z,0.60
2022-10-01T08:12:30.431Z,0.70
2022-10-01T08:14:59.257Z,0.63
2022-10-01T08:17:29.507Z,0.80
2022-10-01T08:19:57.684Z,0.70
2022-10-01T08:22:25.611Z,0.85
2022-10-01T08:24:53.890Z,0.70
2022-10-01T08:27:24.977Z,0.60
2022-10-01T08:29:53.951Z,0.90
2022-10-01T08:32:22.109Z,0.60
2022-10-01T08:34:54.515Z,0.80
2022-10-01T08:37:28.274Z,0.90
2022-10-01T08:39:56.671Z,0.85
2022-10-01T08:42:51.823Z,0.60
2022-10-01T08:45:24.084Z,0.77
2022-10-01T08:47:55.839Z,0.80
2022-10-01T08:50:31.999Z,0.60
2022-10-01T08:53:03.167Z,0.70
2022-10-01T08:55:37.185Z,0.95
2022-10-01T08:58:07.553Z,0.65
2022-10-01T09:00:36.186Z,0.70
2022-10-01T09:03:06.312Z,0.93
2022-10-01T09:05:38.923Z,0.80
2022-10-01T09:08:15.294Z,0.77
2022-10-01T09:10:46.111Z,0.90
2022-10-01T09:13:33.107Z,0.82
2022-10-01T09:16:04.987Z,1.00
2022-10-01T09:18:40.880Z,1.00
2022-10-01T09:21:13.322Z,0.90
2022-10-01T09:23:44.618Z,1.02
2022-10-01T09:26:12.970Z,0.70
2022-10-01T09:28:42.996Z,0.90
2022-10-01T09:31:14.777Z,0.90
2022-10-01T09:33:45.666Z,0.93
2022-10-01T09:36:16.783Z,0.80
2022-10-01T09:38:45.880Z,0.90
2022-10-01T09:41:14.896Z,0.95
2022-10-01T09:43:44.997Z,0.95
2022-10-01T09:46:15.622Z,1.00
2022-10-01T09:48:48.260Z,1.00
2022-10-01T09:51:19.160Z,0.98
2022-10-01T09:53:49.649Z,1.10
2022-10-01T09:56:20.654Z,0.80
2022-10-01T09:58:53.173Z,0.98
2022-10-01T10:01:24.930Z,0.95
2022-10-01T10:03:57.390Z,1.10
2022-10-01T10:06:29.608Z,0.80
2022-10-01T10:08:58.976Z,0.93
2022-10-01T10:11:28.074Z,1.17
2022-10-01T10:14:00.220Z,0.73
2022-10-01T10:16:28.992Z,0.80
2022-10-01T10:18:58.144Z,0.95
2022-10-01T10:21:29.271Z,1.00
2022-10-01T10:23:58.163Z,1.08
2022-10-01T10:26:30.241Z,1.35
2022-10-01T10:28:59.653Z,0.90
2022-10-01T10:31:29.252Z,0.85
2022-10-01T10:34:00.518Z,1.00
2022-10-01T10:36:31.106Z,1.00
2022-10-01T10:38:59.018Z,0.80
2022-10-01T10:41:27.801Z,0.80
2022-10-01T10:43:57.704Z,0.90
2022-10-01T10:46:32.055Z,1.02
2022-10-01T10:49:05.094Z,1.05
2022-10-01T10:51:49.108Z,0.80
2022-10-01T10:54:19.608Z,0.90
2022-10-01T10:57:02.772Z,0.70
2022-10-01T10:59:32.868Z,0.95
2022-10-01T11:02:03.805Z,0.90
2022-10-01T11:04:39.753Z,0.88
2022-10-01T11:07:08.292Z,1.10
2022-10-01T11:09:44.530Z,0.85
2022-10-01T11:12:19.418Z,1.00
2022-10-01T11:14:54.972Z,1.00
2022-10-01T11:17:34.254Z,1.10
2022-10-01T11:20:11.213Z,1.13
2022-10-01T11:22:46.564Z,0.68
2022-10-01T11:25:21.989Z,0.90
2022-10-01T11:27:52.882Z,1.10
2022-10-01T11:30:22.942Z,0.95
2022-10-01T11:32:56.017Z,1.00
2022-10-01T11:35:42.777Z,1.10
2022-10-01T11:38:25.762Z,0.90
2022-10-01T11:40:56.110Z,1.08
2022-10-01T11:43:25.864Z,1.20
2022-10-01T11:45:57.309Z,1.00
2022-10-01T11:48:29.903Z,1.00
2022-10-01T11:51:01.146Z,1.02
2022-10-01T11:53:33.351Z,1.10
2022-10-01T11:56:20.431Z,1.00
2022-10-01T11:58:54.531Z,1.10
2022-10-01T12:01:35.131Z,1.00
2022-10-01T12:04:07.512Z,0.98
2022-10-01T12:06:38.769Z,1.20
2022-10-01T12:09:09.146Z,1.10
2022-10-01T12:11:39.298Z,1.15
2022-10-01T12:14:11.655Z,1.00
2022-10-01T12:16:46.487Z,1.10
2022-10-01T12:19:17.605Z,1.20
2022-10-01T12:21:47.813Z,1.10
2022-10-01T12:24:16.841Z,1.17
2022-10-01T12:26:49.693Z,1.10
2022-10-01T12:29:19.230Z,1.00
2022-10-01T12:31:52.800Z,0.93
2022-10-01T12:34:26.785Z,1.08
2022-10-01T12:37:10.794Z,1.15
2022-10-01T12:39:48.127Z,1.47
2022-10-01T12:42:48.706Z,1.40
2022-10-01T12:45:22.363Z,1.10
2022-10-01T12:47:53.938Z,1.10
2022-10-01T12:50:35.266Z,1.02
2022-10-01T12:53:12.996Z,1.02
2022-10-01T12:55:56.199Z,1.20
2022-10-01T12:58:34.660Z,1.10
2022-10-01T13:01:07.574Z,1.45
2022-10-01T13:03:48.835Z,1.33
2022-10-01T13:06:28.265Z,1.60
2022-10-01T13:09:02.359Z,1.30
2022-10-01T13:11:43.151Z,1.85
2022-10-01T13:14:12.443Z,1.70
2022-10-01T13:16:42.585Z,1.80
2022-10-01T13:19:14.481Z,1.80
2022-10-01T13:21:54.064Z,2.28
2022-10-01T13:24:26.771Z,2.20
2022-10-01T13:26:58.310Z,2.10
2022-10-01T13:29:36.324Z,1.92
2022-10-01T13:32:06.014Z,2.05
2022-10-01T13:34:37.693Z,1.80
2022-10-01T13:37:17.936Z,1.92
2022-10-01T13:39:46.064Z,1.92
2022-10-01T13:42:23.068Z,2.25
2022-10-01T13:44:55.670Z,2.40
2022-10-01T13:47:24.418Z,2.40
2022-10-01T13:50:00.823Z,3.13
2022-10-01T13:52:32.249Z,2.60
2022-10-01T13:55:00.472Z,2.28
2022-10-01T13:57:31.646Z,2.25
2022-10-01T14:00:00.894Z,2.30
2022-10-01T14:02:39.165Z,2.08
2022-10-01T14:05:23.968Z,1.88
2022-10-01T14:07:57.084Z,1.80
2022-10-01T14:10:25.261Z,1.75
2022-10-01T14:13:15.631Z,2.10
2022-10-01T14:16:04.551Z,2.00
2022-10-01T14:18:38.833Z,2.17
2022-10-01T14:21:14.046Z,2.70
2022-10-01T14:23:46.333Z,2.28
2022-10-01T14:26:16.254Z,2.00
2022-10-01T14:28:50.207Z,2.20
2022-10-01T14:31:22.419Z,2.08
2022-10-01T14:34:26.887Z,1.67
2022-10-01T14:36:55.724Z,1.70
2022-10-01T14:39:25.861Z,1.60
2022-10-01T14:41:55.305Z,1.75
2022-10-01T14:44:25.180Z,1.30
2022-10-01T14:46:53.626Z,1.35
2022-10-01T14:49:23.483Z,1.25
2022-10-01T14:51:54.250Z,0.80
2022-10-01T14:54:22.871Z,0.90
2022-10-01T14:56:52.553Z,0.95
2022-10-01T14:59:25.483Z,0.77
2022-10-01T15:01:58.362Z,0.70
2022-10-01T15:04:27.075Z,0.70
2022-10-01T15:06:55.044Z,0.80
2022-10-01T15:09:23.688Z,0.60
2022-10-01T15:11:52.994Z,0.65
2022-10-01T15:14:22.681Z,0.80
2022-10-01T15:16:50.736Z,1.10
2022-10-01T15:19:20.341Z,0.80
2022-10-01T15:21:50.286Z,0.70
2022-10-01T15:24:23.708Z,0.68
2022-10-01T15:26:53.359Z,0.80
2022-10-01T15:29:22.989Z,0.77
2022-10-01T15:31:51.805Z,0.95
2022-10-01T15:34:22.038Z,0.60
2022-10-01T15:36:50.358Z,0.60
2022-10-01T15:39:26.144Z,0.60
2022-10-01T15:41:55.626Z,0.57
2022-10-01T15:44:47.057Z,0.45
2022-10-01T15:47:25.249Z,0.60
2022-10-01T15:50:04.133Z,0.38
2022-10-01T15:52:53.815Z,0.63
2022-10-01T15:55:24.301Z,0.70
2022-10-01T15:57:56.491Z,0.70
2022-10-01T16:00:25.993Z,0.47
2022-10-01T16:02:54.673Z,0.80
2022-10-01T16:05:23.893Z,0.50
2022-10-01T16:07:59.328Z,0.57
2022-10-01T16:10:32.949Z,0.60
2022-10-01T16:13:16.782Z,0.63
2022-10-01T16:15:44.734Z,0.60
2022-10-01T16:18:23.313Z,0.50
2022-10-01T16:20:57.021Z,0.47
2022-10-01T16:23:39.244Z,0.63
2022-10-01T16:26:07.881Z,0.50
2022-10-01T16:28:37.871Z,0.60
2022-10-01T16:31:05.930Z,0.63
2022-10-01T16:33:34.684Z,0.50
2022-10-01T16:36:09.557Z,0.60
2022-10-01T16:38:38.248Z,0.60
2022-10-01T16:41:06.416Z,0.50
2022-10-01T16:43:34.994Z,0.65
2022-10-01T16:46:04.682Z,0.50
2022-10-01T16:48:33.593Z,0.60
2022-10-01T16:51:02.317Z,0.60
2022-10-01T16:53:30.250Z,0.50
2022-10-01T16:55:59.492Z,0.50
2022-10-01T16:58:27.931Z,0.60
2022-10-01T17:00:56.632Z,0.60
2022-10-01T17:03:26.962Z,0.45
2022-10-01T17:05:56.138Z,0.57
2022-10-01T17:08:24.125Z,0.60
2022-10-01T17:10:58.317Z,0.70
2022-10-01T17:13:26.581Z,0.50
2022-10-01T17:15:55.380Z,0.50
2022-10-01T17:18:23.383Z,0.50
2022-10-01T17:20:53.421Z,0.60
2022-10-01T17:23:22.297Z,0.52
2022-10-01T17:25:51.237Z,0.60
2022-10-01T17:28:20.252Z,0.70
2022-10-01T17:30:49.829Z,0.60
2022-10-01T17:33:19.810Z,0.60
2022-10-01T17:35:53.154Z,0.50
2022-10-01T17:38:22.775Z,0.60
2022-10-01T17:40:56.423Z,0.50
2022-10-01T17:43:24.804Z,0.60
2022-10-01T17:45:57.323Z,0.43
2022-10-01T17:48:25.717Z,0.60
2022-10-01T17:51:01.190Z,0.50
2022-10-01T17:53:38.222Z,0.65
2022-10-01T17:56:10.527Z,0.50
2022-10-01T17:58:42.878Z,0.70
2022-10-01T18:01:15.300Z,0.50
2022-10-01T18:03:43.343Z,0.40
2022-10-01T18:06:15.260Z,0.57
2022-10-01T18:08:55.211Z,0.40
2022-10-01T18:11:25.084Z,0.50
2022-10-01T18:13:53.060Z,0.45
2022-10-01T18:16:22.271Z,0.45
2022-10-01T18:21:45.197Z,0.50
2022-10-01T18:24:14.497Z,0.70
2022-10-01T18:26:43.219Z,0.52
2022-10-01T18:29:11.782Z,0.80
2022-10-01T18:31:41.309Z,1.00
2022-10-01T18:34:16.313Z,1.20
2022-10-01T18:36:50.846Z,0.98
2022-10-01T18:41:49.479Z,0.85
2022-10-01T18:44:20.400Z,0.80
2022-10-01T18:46:56.755Z,0.90
2022-10-01T18:49:50.235Z,0.80
2022-10-01T18:52:21.505Z,0.70
2022-10-01T18:55:22.837Z,0.70
2022-10-01T18:57:59.920Z,0.70
2022-10-01T19:00:30.247Z,0.70
2022-10-01T19:03:32.185Z,0.70
2022-10-01T19:06:18.909Z,0.52
2022-10-01T19:09:13.835Z,0.65
2022-10-01T19:11:46.845Z,0.50
2022-10-01T19:14:45.143Z,0.50
2022-10-01T19:17:20.703Z,0.80
2022-10-01T19:19:54.654Z,0.55
2022-10-01T19:22:27.301Z,0.50
2022-10-01T19:25:03.941Z,0.73
2022-10-01T19:27:41.343Z,0.50
2022-10-01T19:30:12.368Z,0.75
2022-10-01T19:32:43.327Z,0.40
2022-10-01T19:35:19.102Z,0.60
2022-10-01T19:37:49.902Z,0.57
2022-10-01T19:40:25.342Z,0.63
2022-10-01T19:42:58.072Z,0.43
2022-10-01T19:45:29.755Z,0.50
2022-10-01T19:48:05.354Z,0.55
2022-10-01T19:50:35.011Z,0.45
2022-10-01T19:53:04.882Z,0.52
2022-10-01T19:55:38.722Z,0.60
2022-10-01T19:58:15.323Z,0.50
2022-10-01T20:00:50.353Z,0.60
2022-10-01T20:03:22.279Z,0.70
2022-10-01T20:05:51.221Z,0.60
2022-10-01T20:08:29.587Z,0.65
2022-10-01T20:10:59.396Z,0.77
2022-10-01T20:13:37.443Z,0.63
2022-10-01T20:16:10.701Z,0.70
2022-10-01T20:18:43.302Z,0.80
2022-10-01T20:21:18.773Z,0.80
2022-10-01T20:23:48.594Z,0.68
2022-10-01T20:26:20.689Z,0.80
2022-10-01T20:29:09.455Z,0.82
2022-10-01T20:31:42.183Z,0.73
2022-10-01T20:34:12.689Z,0.80
2022-10-01T20:36:43.227Z,0.70
2022-10-01T20:39:17.748Z,0.65
2022-10-01T20:44:16.238Z,0.77
2022-10-01T20:46:48.786Z,0.80
2022-10-01T20:49:20.681Z,0.70
2022-10-01T20:51:56.336Z,0.90
2022-10-01T20:54:31.508Z,0.65
2022-10-01T20:57:04.351Z,0.70
2022-10-01T20:59:35.096Z,0.70
2022-10-01T21:02:12.150Z,0.70
2022-10-01T21:04:42.252Z,0.60
2022-10-01T21:07:16.380Z,0.70
2022-10-01T21:09:45.763Z,0.60
2022-10-01T21:12:19.904Z,0.75
2022-10-01T21:14:49.815Z,0.60
2022-10-01T21:17:29.402Z,0.60
2022-10-01T21:20:13.379Z,0.60
2022-10-01T21:22:53.380Z,0.60
2022-10-01T21:25:23.784Z,0.73
2022-10-01T21:28:07.407Z,0.55
2022-10-01T21:30:41.809Z,0.50
2022-10-01T21:33:17.130Z,0.70
2022-10-01T21:35:53.771Z,0.60
2022-10-01T21:38:32.871Z,0.52
2022-10-01T21:41:16.238Z,0.70
2022-10-01T21:43:53.460Z,0.50
2022-10-01T21:46:27.418Z,0.60
2022-10-01T21:48:59.799Z,0.70
2022-10-01T21:51:36.802Z,0.80
2022-10-01T21:54:17.229Z,0.80
2022-10-01T21:56:56.383Z,0.50
2022-10-01T21:59:35.218Z,0.57
2022-10-01T22:02:07.263Z,0.68
2022-10-01T22:04:40.629Z,0.68
2022-10-01T22:07:14.004Z,0.68
2022-10-01T22:09:49.322Z,0.60
2022-10-01T22:12:17.239Z,0.70
2022-10-01T22:14:45.569Z,0.60
2022-10-01T22:17:15.038Z,0.57
2022-10-01T22:19:47.120Z,0.65
2022-10-01T22:22:18.104Z,0.40
2022-10-01T22:24:47.820Z,0.50
2022-10-01T22:27:17.891Z,0.43
2022-10-01T22:29:47.757Z,0.52
2022-10-01T22:32:16.250Z,0.50
2022-10-01T22:34:48.175Z,0.70
2022-10-01T22:37:18.748Z,0.55
2022-10-01T22:39:48.824Z,0.43
2022-10-01T22:42:17.683Z,0.57
2022-10-01T22:44:48.085Z,0.50
2022-10-01T22:47:29.350Z,0.40
2022-10-01T22:50:04.760Z,0.38
2022-10-01T22:52:35.491Z,0.57
2022-10-01T22:55:12.852Z,0.50
2022-10-01T22:58:04.940Z,0.50
2022-10-01T23:00:33.060Z,0.70
2022-10-01T23:03:06.841Z,0.60
2022-10-01T23:05:52.216Z,0.60
2022-10-01T23:08:24.206Z,0.60
2022-10-01T23:10:57.158Z,0.60
2022-10-01T23:13:29.968Z,0.63
2022-10-01T23:16:00.358Z,0.50
2022-10-01T23:18:34.974Z,0.50
2022-10-01T23:23:37.255Z,0.52
2022-10-01T23:26:15.772Z,0.55
2022-10-01T23:28:51.146Z,0.73
2022-10-01T23:31:23.519Z,0.80
2022-10-01T23:33:58.860Z,0.80
2022-10-01T23:36:33.869Z,1.00
2022-10-01T23:39:31.865Z,0.68
2022-10-01T23:42:01.209Z,0.60
2022-10-01T23:44:32.610Z,0.80
2022-10-01T23:47:00.593Z,0.80
2022-10-01T23:49:29.476Z,0.55
2022-10-01T23:52:01.521Z,0.70
2022-10-01T23:54:34.280Z,0.50
2022-10-01T23:57:04.308Z,0.57
2022-10-01T23:59:33.643Z,0.50
